KEST/EST METAR and TAF weather

Enter ICAO airport designator
Station Type Date Time Source
KEST METAR 2020/01/22 16:36 UTC NOAA

KEST 221636Z AUTO 19014KT 3SM -SN BR OVC006 00/M01 A2986 RMK AO2 CIG 005V010 P0003 T00001006


Station Type Date Time Source
KEST Decoded METAR 2020/01/22 16:36 UTC NOAA

ESTHERVILLE MUNICIPAL AIRPORT , IA, United States (KEST) 43-24N 94-45W 401M
Jan 22, 2020 - 11:36 AM EST / 2020.01.22 1636 UTC
Wind: from the S (190 degrees) at 16 MPH (14 KT):0
Visibility: 3 mile(s):0
Sky conditions: overcast
Weather: light snow; mist
Precipitation last hour: 0.03 inches
Temperature: 32.0 F (0.0 C)
Windchill: 21 F (-6 C):1
Dew Point: 30.9 F (-0.6 C)
Relative Humidity: 95%
Pressure (altimeter): 29.86 in. Hg (1011 hPa)
ob: KEST 221636Z AUTO 19014KT 3SM -SN BR OVC006 00/M01 A2986 RMK AO2 CIG 005V010 P0003 T00001006
cycle: 16

Station Type Date Time Source
KEST TAF UTC NOAA

Error!

Example: see airport list